Time;durP1;ratioP1;P1;durP2;ratioP2;P2;SDS_P1;SDS_P2;PMS_P1;PMS_P2;Temp;Humidity;BMP_temperature;BMP_pressure;BME280_temperature;BME280_humidity;BME280_pressure;Samples;Min_cycle;Max_cycle;Signal;HPM_P1;HPM_P2
2023/02/02 00:02:04;;;;;;;1.55;0.50;;;;;;;9.75;32.52;98789.91;5078798;28;20025;-62
2023/02/02 00:04:31;;;;;;;0.55;0.32;;;;;;;9.80;30.95;98774.72;5069680;28;20031;-62
2023/02/02 00:06:58;;;;;;;1.35;0.40;;;;;;;9.85;32.26;98771.72;5061787;28;20020;-63
2023/02/02 00:09:29;;;;;;;1.48;0.40;;;;;;;9.42;33.45;98732.19;5076938;28;20395;-63
2023/02/02 00:11:58;;;;;;;1.38;0.40;;;;;;;9.72;33.70;98786.75;5064916;28;20039;-64
2023/02/02 00:14:24;;;;;;;0.97;0.37;;;;;;;9.73;31.64;98784.03;5048367;28;20081;-62
2023/02/02 00:16:51;;;;;;;1.08;0.45;;;;;;;9.69;33.41;98735.91;5070018;28;20602;-64
2023/02/02 00:19:19;;;;;;;1.02;0.40;;;;;;;9.89;34.87;98774.84;5042853;28;20117;-63
2023/02/02 00:21:44;;;;;;;1.13;0.50;;;;;;;9.77;33.97;98784.56;5061596;28;20035;-63
2023/02/02 00:24:12;;;;;;;0.95;0.40;;;;;;;9.82;32.15;98772.81;5063420;28;20423;-62
2023/02/02 00:26:39;;;;;;;1.77;0.50;;;;;;;9.79;35.26;98774.88;5046929;28;20032;-63
2023/02/02 00:29:05;;;;;;;1.20;0.40;;;;;;;9.69;34.45;98780.06;5054441;28;20052;-61
2023/02/02 00:31:31;;;;;;;1.10;0.40;;;;;;;9.77;34.45;98771.59;5043209;28;20165;-62
2023/02/02 00:33:56;;;;;;;1.38;0.40;;;;;;;9.74;33.67;98783.06;5080540;28;20127;-63
2023/02/02 00:36:22;;;;;;;1.75;0.50;;;;;;;9.61;36.91;98775.53;5067892;28;20032;-62
2023/02/02 00:38:49;;;;;;;1.02;0.40;;;;;;;9.49;35.33;98780.97;5066963;28;20777;-65
2023/02/02 00:41:15;;;;;;;1.90;0.50;;;;;;;9.73;33.07;98772.78;5064003;28;20039;-63
2023/02/02 00:43:40;;;;;;;2.20;0.45;;;;;;;9.63;35.49;98768.41;5065427;28;20110;-62
2023/02/02 00:46:10;;;;;;;1.05;0.40;;;;;;;9.72;34.35;98769.38;5058163;28;20104;-63
2023/02/02 00:48:36;;;;;;;2.25;0.73;;;;;;;9.73;34.21;98768.44;5049860;28;20024;-66
2023/02/02 00:51:01;;;;;;;1.10;0.40;;;;;;;9.95;34.98;98766.53;5049062;28;20036;-64
2023/02/02 00:53:27;;;;;;;0.90;0.30;;;;;;;10.25;30.78;98778.53;5069913;28;20101;-63
2023/02/02 00:55:52;;;;;;;1.45;0.40;;;;;;;10.27;32.37;98771.44;5071122;28;20560;-65
2023/02/02 00:58:18;;;;;;;0.75;0.30;;;;;;;10.12;32.72;98771.03;5060216;28;20023;-65
2023/02/02 01:00:43;;;;;;;1.75;0.50;;;;;;;9.88;33.81;98768.84;5058855;28;20024;-63
2023/02/02 01:03:09;;;;;;;1.40;0.50;;;;;;;9.82;35.22;98777.19;5068495;28;20036;-65
2023/02/02 01:05:35;;;;;;;1.20;0.30;;;;;;;9.39;35.45;98729.84;5058095;28;20068;-63
2023/02/02 01:08:00;;;;;;;0.98;0.40;;;;;;;9.55;34.59;98776.06;5079507;28;20114;-64
2023/02/02 01:10:26;;;;;;;1.52;0.50;;;;;;;9.59;33.54;98742.88;5063769;28;20103;-63
2023/02/02 01:12:51;;;;;;;1.33;0.50;;;;;;;9.79;34.07;98783.47;5041521;28;20024;-63
2023/02/02 01:15:17;;;;;;;1.13;0.40;;;;;;;9.89;33.87;98793.03;5081398;28;20654;-65
2023/02/02 01:17:43;;;;;;;0.73;0.30;;;;;;;9.76;35.25;98786.31;5064964;28;20088;-63
2023/02/02 01:20:13;;;;;;;1.40;0.35;;;;;;;9.57;36.61;98792.31;5043706;28;20020;-64
2023/02/02 01:22:39;;;;;;;1.45;0.40;;;;;;;9.70;33.39;98794.66;5062078;28;20706;-63
2023/02/02 01:25:05;;;;;;;0.93;0.40;;;;;;;9.73;35.78;98790.97;5064484;28;20043;-63
2023/02/02 01:27:30;;;;;;;1.27;0.40;;;;;;;9.67;34.92;98789.72;5065030;28;20504;-64
2023/02/02 01:29:56;;;;;;;0.90;0.30;;;;;;;9.65;34.72;98794.25;5079788;28;20521;-63
2023/02/02 01:32:21;;;;;;;1.42;0.40;;;;;;;9.60;37.35;98792.06;5047511;28;20537;-63
2023/02/02 01:34:47;;;;;;;1.77;0.47;;;;;;;9.49;38.71;98804.31;5065822;28;20043;-63
2023/02/02 01:37:12;;;;;;;1.65;0.50;;;;;;;9.14;36.16;98746.72;5059370;28;20028;-65
2023/02/02 01:39:38;;;;;;;2.10;0.40;;;;;;;9.54;35.88;98802.97;5064959;28;20107;-64
2023/02/02 01:42:11;;;;;;;0.82;0.30;;;;;;;9.34;35.78;98755.38;5065218;28;20044;-63
2023/02/02 01:45:15;;;;;;;0.95;0.40;;;;;;;9.57;35.97;98799.31;5078554;28;20036;-63
2023/02/02 01:47:48;;;;;;;1.95;0.55;;;;;;;9.52;35.80;98798.88;5074909;28;20132;-63
2023/02/02 01:50:15;;;;;;;1.20;0.40;;;;;;;9.56;34.73;98795.88;5063123;28;20036;-64
2023/02/02 01:52:42;;;;;;;0.68;0.30;;;;;;;9.12;35.61;98756.41;5062518;28;20020;-63
2023/02/02 01:55:10;;;;;;;0.80;0.30;;;;;;;9.48;35.61;98790.53;5062481;28;20035;-64
2023/02/02 01:57:41;;;;;;;1.13;0.50;;;;;;;9.51;35.89;98794.63;5064237;28;20054;-63
2023/02/02 02:00:10;;;;;;;0.65;0.22;;;;;;;9.42;34.74;98778.91;5059873;28;20040;-65
2023/02/02 02:02:38;;;;;;;0.95;0.38;;;;;;;9.41;36.86;98794.59;5058360;28;20459;-64
2023/02/02 02:05:04;;;;;;;1.23;0.38;;;;;;;9.63;33.63;98791.78;5063431;28;20099;-64
2023/02/02 02:07:29;;;;;;;0.82;0.30;;;;;;;9.29;33.14;98739.41;5046425;28;20031;-64
2023/02/02 02:09:55;;;;;;;0.30;0.20;;;;;;;9.52;33.16;98780.69;5081181;28;20514;-63
2023/02/02 02:12:20;;;;;;;1.05;0.30;;;;;;;9.73;32.63;98784.03;5056897;28;20794;-64
2023/02/02 02:17:51;;;;;;;0.55;0.25;;;;;;;9.63;34.20;98781.38;5075001;28;20046;-63
2023/02/02 02:26:52;;;;;;;0.95;0.28;;;;;;;9.78;35.16;98794.00;5078194;28;20078;-63
2023/02/02 02:29:39;;;;;;;1.27;0.40;;;;;;;9.65;36.94;98781.25;5083772;28;20119;-65
2023/02/02 02:32:29;;;;;;;1.15;0.30;;;;;;;9.28;36.05;98718.78;5072694;28;20032;-63
2023/02/02 02:35:04;;;;;;;0.57;0.28;;;;;;;9.57;36.30;98788.91;5081433;28;20051;-63
2023/02/02 02:37:30;;;;;;;1.23;0.40;;;;;;;9.76;36.11;98788.13;5061223;28;20508;-63
2023/02/02 02:40:14;;;;;;;1.05;0.32;;;;;;;9.87;35.68;98784.56;5061020;28;20036;-64
2023/02/02 02:42:45;;;;;;;1.75;0.40;;;;;;;9.62;38.37;98765.97;5066395;28;20107;-62
2023/02/02 02:45:11;;;;;;;1.75;0.38;;;;;;;9.76;36.13;98807.09;5054862;28;20024;-63
2023/02/02 02:47:37;;;;;;;0.60;0.30;;;;;;;9.84;36.00;98782.22;5073465;28;20335;-63
2023/02/02 02:50:03;;;;;;;0.90;0.30;;;;;;;9.69;37.02;98787.84;5063683;28;20439;-62
2023/02/02 02:52:28;;;;;;;1.17;0.40;;;;;;;9.69;36.26;98781.81;5051927;28;20470;-63
2023/02/02 02:54:55;;;;;;;0.90;0.30;;;;;;;9.75;36.27;98791.69;5077832;28;20394;-63
2023/02/02 02:57:39;;;;;;;1.40;0.40;;;;;;;9.75;37.62;98799.47;5082515;28;20382;-65
2023/02/02 03:00:39;;;;;;;0.70;0.30;;;;;;;9.56;39.49;98795.03;5075889;28;20029;-65
2023/02/02 03:03:33;;;;;;;0.60;0.20;;;;;;;10.04;35.51;98799.50;5061384;28;20047;-63
2023/02/02 03:06:20;;;;;;;0.68;0.28;;;;;;;9.96;36.32;98804.53;5073715;28;20081;-63
2023/02/02 03:08:53;;;;;;;0.85;0.30;;;;;;;9.74;37.60;98811.63;5074902;28;20097;-64
2023/02/02 03:11:19;;;;;;;0.68;0.20;;;;;;;9.54;37.34;98765.81;5064809;28;20036;-65
2023/02/02 03:13:45;;;;;;;0.52;0.30;;;;;;;9.35;36.75;98741.47;5080831;28;20063;-63
2023/02/02 03:16:11;;;;;;;0.95;0.30;;;;;;;9.68;37.66;98796.59;5069746;28;20120;-63
2023/02/02 03:18:36;;;;;;;1.20;0.30;;;;;;;9.73;36.83;98806.56;5063783;28;20069;-63
2023/02/02 03:21:02;;;;;;;1.13;0.40;;;;;;;9.74;35.64;98809.00;5082376;28;20028;-63
2023/02/02 03:23:28;;;;;;;0.30;0.20;;;;;;;9.83;35.19;98828.16;5065659;28;20032;-64
2023/02/02 03:26:12;;;;;;;0.50;0.20;;;;;;;9.95;35.45;98811.50;5062470;28;20115;-63
2023/02/02 03:28:38;;;;;;;0.93;0.22;;;;;;;9.82;37.03;98816.16;5071474;28;20020;-63
2023/02/02 03:31:03;;;;;;;1.30;0.30;;;;;;;9.77;36.22;98811.34;5081540;28;20028;-62
2023/02/02 03:33:32;;;;;;;0.82;0.25;;;;;;;9.86;35.48;98814.94;5068287;28;20036;-63
2023/02/02 03:35:57;;;;;;;0.32;0.20;;;;;;;9.81;37.53;98815.31;5060114;28;20064;-63
2023/02/02 03:38:22;;;;;;;0.30;0.20;;;;;;;9.72;37.18;98815.31;5083638;28;20525;-63
2023/02/02 03:40:49;;;;;;;1.67;0.28;;;;;;;9.68;39.91;98812.16;5064640;28;20073;-65
2023/02/02 03:43:20;;;;;;;0.25;0.20;;;;;;;9.65;39.36;98814.19;5047349;28;20101;-65
2023/02/02 03:45:45;;;;;;;0.30;0.20;;;;;;;9.57;39.27;98807.91;5064941;28;20058;-62
2023/02/02 03:48:10;;;;;;;0.60;0.30;;;;;;;9.84;33.41;98818.59;5079812;28;20052;-63
2023/02/02 03:50:36;;;;;;;0.73;0.30;;;;;;;9.70;39.04;98809.44;5062032;28;20111;-63
2023/02/02 03:53:02;;;;;;;0.82;0.30;;;;;;;9.29;38.07;98767.97;5063377;28;20024;-64
2023/02/02 03:55:28;;;;;;;0.85;0.30;;;;;;;9.60;36.85;98812.84;5061555;28;20141;-64
2023/02/02 03:57:53;;;;;;;0.65;0.22;;;;;;;9.60;38.39;98801.59;5081614;28;20024;-63
2023/02/02 04:00:19;;;;;;;0.77;0.30;;;;;;;9.79;37.34;98811.22;5063931;28;20032;-64
2023/02/02 04:02:44;;;;;;;1.35;0.40;;;;;;;9.70;35.99;98809.44;5058324;28;20139;-63
2023/02/02 04:05:10;;;;;;;0.38;0.20;;;;;;;9.64;37.31;98803.00;5084870;28;20066;-64
2023/02/02 04:07:35;;;;;;;0.45;0.20;;;;;;;9.84;35.85;98806.44;5065718;28;20108;-63
2023/02/02 04:10:01;;;;;;;1.20;0.35;;;;;;;9.75;36.94;98808.06;5060683;28;20668;-65
2023/02/02 04:12:27;;;;;;;0.38;0.20;;;;;;;9.68;36.83;98811.34;5076905;28;20035;-64
2023/02/02 04:14:52;;;;;;;0.65;0.30;;;;;;;9.58;38.31;98811.31;5061063;28;20043;-64
2023/02/02 04:17:18;;;;;;;1.13;0.30;;;;;;;9.62;37.65;98828.28;5076599;28;20040;-63
2023/02/02 04:19:43;;;;;;;0.55;0.10;;;;;;;9.98;35.46;98826.84;5065932;28;20133;-63
2023/02/02 04:22:09;;;;;;;0.98;0.35;;;;;;;9.87;35.20;98811.34;5082369;28;20032;-63
2023/02/02 04:24:34;;;;;;;0.77;0.22;;;;;;;9.95;34.89;98816.72;5060883;28;20040;-63
2023/02/02 04:26:59;;;;;;;1.17;0.38;;;;;;;10.07;30.58;98798.38;5064010;28;20034;-64
2023/02/02 04:29:25;;;;;;;0.73;0.22;;;;;;;10.03;34.63;98813.44;5075333;28;20039;-63
2023/02/02 04:31:50;;;;;;;0.65;0.30;;;;;;;9.86;37.28;98819.31;5053304;28;20027;-63
2023/02/02 04:34:16;;;;;;;0.82;0.30;;;;;;;9.74;37.77;98805.59;5061900;28;20793;-63
2023/02/02 04:36:42;;;;;;;0.85;0.30;;;;;;;9.58;34.40;98765.41;5066057;28;20036;-64
2023/02/02 04:39:10;;;;;;;1.08;0.30;;;;;;;10.12;30.95;98815.22;5080009;28;20909;-63
2023/02/02 04:41:35;;;;;;;0.77;0.22;;;;;;;10.25;29.49;98825.31;5082402;28;20096;-62
2023/02/02 04:44:01;;;;;;;2.50;0.40;;;;;;;10.03;32.87;98804.81;5077424;28;20031;-63
2023/02/02 04:46:27;;;;;;;0.52;0.22;;;;;;;9.90;36.63;98820.66;5078999;28;20161;-63
2023/02/02 04:48:53;;;;;;;1.15;0.30;;;;;;;9.93;35.09;98826.41;5060894;28;20490;-63
2023/02/02 04:51:18;;;;;;;0.93;0.20;;;;;;;9.87;34.88;98816.53;5070509;28;20020;-62
2023/02/02 04:53:44;;;;;;;1.00;0.30;;;;;;;9.84;36.47;98828.97;5044436;28;20020;-63
2023/02/02 04:56:17;;;;;;;0.50;0.20;;;;;;;9.90;35.28;98815.47;5078389;28;20040;-63
2023/02/02 04:58:44;;;;;;;1.30;0.17;;;;;;;9.82;33.42;98826.53;5052386;28;20016;-64
2023/02/02 05:01:10;;;;;;;1.17;0.40;;;;;;;9.86;32.90;98827.91;5066561;28;20054;-63
2023/02/02 05:03:35;;;;;;;0.32;0.20;;;;;;;10.01;33.61;98841.31;5068565;28;20115;-62
2023/02/02 05:06:02;;;;;;;0.43;0.20;;;;;;;9.94;34.80;98846.22;5083280;28;20123;-63
2023/02/02 05:08:28;;;;;;;0.80;0.30;;;;;;;9.82;34.79;98835.16;5045405;28;20027;-64
2023/02/02 05:10:53;;;;;;;0.90;0.40;;;;;;;9.88;34.78;98838.16;5070369;28;20024;-65
2023/02/02 05:13:19;;;;;;;0.52;0.20;;;;;;;9.77;36.39;98846.91;5063270;28;20035;-63
2023/02/02 05:15:44;;;;;;;0.60;0.30;;;;;;;9.73;33.66;98872.31;5058471;28;20029;-63
2023/02/02 05:18:10;;;;;;;1.05;0.30;;;;;;;9.83;35.78;98846.34;5065670;28;20028;-63
2023/02/02 05:20:35;;;;;;;1.35;0.20;;;;;;;10.16;30.88;98867.72;5079331;28;20024;-64
2023/02/02 05:23:01;;;;;;;0.10;0.10;;;;;;;10.10;34.72;98843.09;5063120;28;20028;-64
2023/02/02 05:25:26;;;;;;;1.58;0.40;;;;;;;9.90;38.07;98864.81;5060392;28;20037;-64
2023/02/02 05:27:51;;;;;;;1.10;0.20;;;;;;;9.69;37.06;98868.34;5063665;28;20483;-63
2023/02/02 05:30:17;;;;;;;0.77;0.20;;;;;;;10.27;29.59;98843.38;5082406;28;21076;-64
2023/02/02 05:32:42;;;;;;;0.80;0.30;;;;;;;10.23;32.83;98875.81;5061919;28;20056;-62
2023/02/02 05:35:08;;;;;;;0.45;0.20;;;;;;;10.13;34.67;98862.78;5065864;28;20097;-64
2023/02/02 05:37:34;;;;;;;1.10;0.30;;;;;;;10.03;33.68;98852.41;5064056;28;20035;-64
2023/02/02 05:39:59;;;;;;;0.10;0.10;;;;;;;9.99;34.91;98867.44;5057405;28;20035;-63
2023/02/02 05:42:25;;;;;;;0.35;0.20;;;;;;;9.85;38.55;98875.59;5060064;28;20032;-63
2023/02/02 05:44:50;;;;;;;0.68;0.20;;;;;;;10.29;31.25;98889.06;5056431;28;20032;-64
2023/02/02 05:47:15;;;;;;;1.30;0.20;;;;;;;9.79;34.38;98827.63;5079236;28;20689;-63
2023/02/02 05:49:41;;;;;;;0.30;0.20;;;;;;;9.90;34.84;98850.06;5060481;28;20021;-64
2023/02/02 05:52:08;;;;;;;0.77;0.20;;;;;;;10.05;32.74;98873.03;5038884;28;20028;-64
2023/02/02 05:54:33;;;;;;;0.98;0.40;;;;;;;10.21;33.00;98888.94;5044636;28;20031;-63
2023/02/02 05:57:00;;;;;;;0.45;0.10;;;;;;;10.25;32.84;98910.28;5064950;28;20028;-63
2023/02/02 05:59:26;;;;;;;0.45;0.17;;;;;;;10.25;31.37;98879.91;5086259;28;20027;-63
2023/02/02 06:01:51;;;;;;;0.25;0.10;;;;;;;10.12;32.58;98885.34;5061195;28;20028;-63
2023/02/02 06:04:17;;;;;;;0.52;0.10;;;;;;;10.30;31.11;98884.69;5078513;28;20031;-64
2023/02/02 06:06:42;;;;;;;0.15;0.10;;;;;;;10.30;33.16;98893.31;5041124;28;20035;-63
2023/02/02 06:09:08;;;;;;;1.17;0.22;;;;;;;10.10;34.55;98892.47;5046241;28;20528;-64
2023/02/02 06:11:34;;;;;;;0.38;0.20;;;;;;;9.86;35.60;98879.84;5054362;28;20028;-65
2023/02/02 06:14:00;;;;;;;0.40;0.28;;;;;;;10.27;30.38;98890.16;5044500;28;20115;-64
2023/02/02 06:16:26;;;;;;;0.15;0.10;;;;;;;10.35;33.69;98896.34;5066941;28;20055;-65
2023/02/02 06:18:52;;;;;;;0.30;0.10;;;;;;;9.96;37.19;98883.28;5047933;28;20024;-63
2023/02/02 06:21:18;;;;;;;0.10;0.10;;;;;;;9.88;35.93;98903.91;5079492;28;20031;-64
2023/02/02 06:23:44;;;;;;;0.30;0.10;;;;;;;9.87;35.18;98891.06;5083279;28;20671;-64
2023/02/02 06:26:14;;;;;;;0.95;0.20;;;;;;;9.75;37.34;98888.56;5059629;28;20436;-63
2023/02/02 06:28:41;;;;;;;0.10;0.10;;;;;;;9.65;37.39;98892.91;5041093;28;20024;-62
2023/02/02 06:31:09;;;;;;;0.85;0.20;;;;;;;9.60;36.49;98892.47;5061330;28;20482;-64
2023/02/02 06:33:34;;;;;;;0.90;0.10;;;;;;;9.88;32.77;98897.91;5044558;28;20062;-62
2023/02/02 06:36:01;;;;;;;0.47;0.20;;;;;;;9.93;32.42;98870.56;5064895;28;20024;-63
2023/02/02 06:38:27;;;;;;;0.77;0.20;;;;;;;10.19;32.14;98896.84;5076380;28;20032;-62
2023/02/02 06:40:52;;;;;;;0.47;0.20;;;;;;;9.86;37.21;98892.84;5060551;28;20043;-62
2023/02/02 06:43:18;;;;;;;0.63;0.20;;;;;;;9.90;33.27;98902.00;5075715;28;20035;-61
2023/02/02 06:45:43;;;;;;;0.52;0.20;;;;;;;9.93;35.27;98906.94;5081065;28;20032;-62
2023/02/02 06:48:12;;;;;;;0.47;0.20;;;;;;;9.88;36.03;98913.50;5056454;28;20127;-65
2023/02/02 06:50:38;;;;;;;0.10;0.10;;;;;;;9.70;36.79;98903.72;5066937;28;20026;-64
2023/02/02 06:53:04;;;;;;;0.32;0.20;;;;;;;9.77;36.36;98915.22;5041216;28;20274;-62
2023/02/02 06:55:30;;;;;;;0.47;0.20;;;;;;;9.74;36.92;98915.47;5062027;28;20020;-63
2023/02/02 06:57:56;;;;;;;0.68;0.30;;;;;;;9.60;37.92;98906.28;5048187;28;20486;-65
2023/02/02 07:00:22;;;;;;;0.47;0.20;;;;;;;9.75;36.10;98914.53;5075969;28;20024;-63
2023/02/02 07:02:49;;;;;;;1.75;0.35;;;;;;;9.74;34.83;98906.88;5076556;28;20032;-62
2023/02/02 07:05:15;;;;;;;1.85;0.30;;;;;;;9.90;32.36;98903.78;5083162;28;20501;-63
2023/02/02 07:07:40;;;;;;;0.82;0.20;;;;;;;9.95;33.97;98925.00;5082539;28;20028;-62
2023/02/02 07:10:06;;;;;;;0.65;0.20;;;;;;;9.67;33.25;98872.00;5082847;28;20103;-62
2023/02/02 07:12:32;;;;;;;0.73;0.20;;;;;;;9.99;29.57;98926.38;5070523;28;20724;-62
2023/02/02 07:14:58;;;;;;;0.28;0.20;;;;;;;10.09;30.87;98921.19;5067808;28;20032;-63
2023/02/02 07:17:24;;;;;;;0.20;0.13;;;;;;;10.18;31.72;98929.00;5066823;28;20024;-65
2023/02/02 07:19:49;;;;;;;0.30;0.17;;;;;;;10.07;32.40;98921.31;5087135;28;20393;-64
2023/02/02 07:22:15;;;;;;;2.55;0.10;;;;;;;9.75;31.85;98887.75;5085403;28;20483;-63
2023/02/02 07:24:40;;;;;;;0.65;0.20;;;;;;;9.99;31.04;98932.38;5068778;28;20482;-62
2023/02/02 07:27:06;;;;;;;0.52;0.10;;;;;;;10.01;31.00;98937.44;5078708;28;20020;-63
2023/02/02 07:29:31;;;;;;;0.57;0.20;;;;;;;9.83;34.76;98932.06;5044622;28;20032;-63
2023/02/02 07:31:57;;;;;;;0.75;0.17;;;;;;;9.74;32.72;98931.06;5069945;28;20035;-63
2023/02/02 07:34:23;;;;;;;0.73;0.20;;;;;;;9.78;31.79;98927.28;5065920;28;20446;-65
2023/02/02 07:36:48;;;;;;;0.40;0.10;;;;;;;9.85;31.20;98911.97;5082488;28;20020;-63
2023/02/02 07:39:14;;;;;;;0.45;0.20;;;;;;;9.77;31.73;98936.00;5050317;28;20124;-64
2023/02/02 07:41:39;;;;;;;0.50;0.20;;;;;;;9.76;32.38;98920.53;5083969;28;20036;-63
2023/02/02 07:44:06;;;;;;;0.70;0.20;;;;;;;9.75;32.97;98930.13;5085158;28;20022;-63
2023/02/02 07:46:32;;;;;;;0.63;0.20;;;;;;;9.81;32.64;98939.97;5061359;28;20059;-62
2023/02/02 07:48:57;;;;;;;0.43;0.25;;;;;;;9.53;32.79;98889.59;5062042;28;20048;-63
2023/02/02 07:51:23;;;;;;;0.65;0.20;;;;;;;9.82;33.64;98946.81;5064337;28;20059;-63
2023/02/02 07:53:51;;;;;;;0.82;0.20;;;;;;;9.84;31.53;98951.88;5075212;28;20056;-63
2023/02/02 07:56:19;;;;;;;1.23;0.40;;;;;;;9.86;32.97;98942.19;5069391;28;20150;-65
2023/02/02 07:58:45;;;;;;;0.50;0.20;;;;;;;9.93;32.34;98940.72;5050394;28;20028;-64
2023/02/02 08:01:13;;;;;;;1.45;0.25;;;;;;;9.79;35.06;98931.50;5055927;28;20382;-62
2023/02/02 08:03:39;;;;;;;0.73;0.20;;;;;;;9.63;32.77;98898.22;5050273;28;20028;-62
2023/02/02 08:06:14;;;;;;;0.45;0.20;;;;;;;9.96;31.05;98942.22;5070392;28;20023;-63
2023/02/02 08:08:40;;;;;;;0.20;0.15;;;;;;;9.99;34.27;98945.34;5064450;28;20155;-63
2023/02/02 08:11:08;;;;;;;0.47;0.20;;;;;;;9.96;35.48;98942.22;5059088;28;20099;-62
2023/02/02 08:13:34;;;;;;;1.65;0.30;;;;;;;9.75;35.84;98930.13;5065958;28;20505;-63
2023/02/02 08:15:59;;;;;;;0.40;0.20;;;;;;;9.86;33.85;98941.38;5066320;28;20057;-63
2023/02/02 08:18:24;;;;;;;0.10;0.10;;;;;;;10.00;31.68;98940.97;5066267;28;20455;-63
2023/02/02 08:20:51;;;;;;;0.90;0.20;;;;;;;10.10;31.30;98941.84;5050424;28;20035;-63
2023/02/02 08:23:22;;;;;;;0.95;0.30;;;;;;;10.08;33.54;98942.94;5064859;28;20038;-62
2023/02/02 08:25:50;;;;;;;1.20;0.40;;;;;;;9.99;34.08;98937.56;5063310;28;20139;-64
2023/02/02 08:28:16;;;;;;;1.50;0.30;;;;;;;9.98;34.40;98927.31;5046644;28;20489;-63
2023/02/02 08:30:42;;;;;;;1.58;0.30;;;;;;;10.03;34.26;98939.91;5062979;28;20024;-65
2023/02/02 08:33:08;;;;;;;1.20;0.30;;;;;;;9.86;35.04;98931.78;5076058;28;20088;-66
2023/02/02 08:35:33;;;;;;;0.88;0.30;;;;;;;9.95;33.49;98948.38;5058952;28;20040;-63
2023/02/02 08:38:01;;;;;;;0.68;0.30;;;;;;;9.77;35.29;98912.63;5058067;28;20024;-64
2023/02/02 08:40:28;;;;;;;0.43;0.20;;;;;;;9.98;35.64;98951.53;5059272;28;20024;-63
2023/02/02 08:42:53;;;;;;;0.47;0.10;;;;;;;10.06;34.24;98957.81;5058090;28;20157;-65
2023/02/02 08:45:19;;;;;;;1.02;0.40;;;;;;;9.92;37.34;98964.22;5058371;28;20037;-62
2023/02/02 08:47:45;;;;;;;0.40;0.20;;;;;;;9.95;35.42;98969.97;5076782;28;20287;-62
2023/02/02 08:50:10;;;;;;;1.40;0.47;;;;;;;9.94;32.21;98957.91;5041555;28;20028;-63
2023/02/02 08:52:36;;;;;;;1.15;0.30;;;;;;;10.15;31.49;98962.25;5053004;28;20808;-64
2023/02/02 08:55:03;;;;;;;0.95;0.35;;;;;;;10.22;33.57;98950.31;5050613;28;20035;-64
2023/02/02 08:57:31;;;;;;;0.93;0.20;;;;;;;10.27;32.75;98958.53;5056905;28;20044;-65
2023/02/02 08:59:57;;;;;;;0.65;0.20;;;;;;;10.32;34.45;98959.00;5057239;28;20116;-64
2023/02/02 09:02:23;;;;;;;1.15;0.32;;;;;;;10.20;34.99;98960.88;5057105;28;20024;-63
2023/02/02 09:04:48;;;;;;;1.25;0.30;;;;;;;10.05;34.98;98941.41;5057199;28;20032;-63
2023/02/02 09:07:14;;;;;;;0.60;0.20;;;;;;;10.01;36.64;98950.44;5041144;28;20020;-63
2023/02/02 09:09:39;;;;;;;0.88;0.30;;;;;;;9.95;36.62;98953.56;5075174;28;22410;-63
2023/02/02 09:12:05;;;;;;;1.35;0.30;;;;;;;9.83;36.89;98952.84;5075304;28;20019;-64
2023/02/02 09:14:30;;;;;;;0.60;0.20;;;;;;;9.87;37.46;98950.78;5057199;28;20085;-63
2023/02/02 09:16:56;;;;;;;1.63;0.50;;;;;;;9.83;38.95;98955.44;5039446;28;20031;-65
2023/02/02 09:19:22;;;;;;;1.17;0.40;;;;;;;9.84;38.73;98961.44;5057584;28;20024;-64
2023/02/02 09:21:50;;;;;;;0.32;0.17;;;;;;;9.99;36.57;98960.13;5073587;28;20032;-64
2023/02/02 09:24:16;;;;;;;1.33;0.40;;;;;;;9.99;36.52;98958.34;5040981;28;20608;-64
2023/02/02 09:26:43;;;;;;;1.42;0.43;;;;;;;9.93;37.53;98958.03;5052795;28;20020;-62
2023/02/02 09:29:14;;;;;;;2.03;0.40;;;;;;;9.91;37.15;98963.41;5056237;28;20539;-64
2023/02/02 09:31:39;;;;;;;1.15;0.45;;;;;;;9.93;36.32;98971.03;5056986;28;20028;-62
2023/02/02 09:34:08;;;;;;;1.33;0.40;;;;;;;9.63;37.61;98926.78;5057555;28;20863;-63
2023/02/02 09:36:36;;;;;;;2.13;0.52;;;;;;;10.04;34.87;98962.31;5041648;28;20069;-64
2023/02/02 09:39:02;;;;;;;0.20;0.20;;;;;;;10.19;34.24;98964.41;5058851;28;20050;-62
2023/02/02 09:41:36;;;;;;;1.65;0.52;;;;;;;10.35;34.36;98968.31;5039828;28;20608;-63
2023/02/02 09:44:05;;;;;;;1.55;0.40;;;;;;;10.45;34.25;98961.34;5075100;28;20398;-64
2023/02/02 09:46:36;;;;;;;1.90;0.35;;;;;;;10.37;35.84;98961.22;5049573;28;20051;-64
2023/02/02 09:49:06;;;;;;;1.70;0.43;;;;;;;10.37;33.58;98958.63;5076643;28;20812;-64
2023/02/02 09:51:37;;;;;;;2.17;0.70;;;;;;;10.26;34.30;98971.66;5055103;28;20035;-63
2023/02/02 09:54:18;;;;;;;3.30;1.15;;;;;;;10.20;34.75;98979.06;5056073;28;20024;-65
2023/02/02 09:56:49;;;;;;;1.88;0.60;;;;;;;10.07;34.42;98973.28;5035995;28;20093;-64
2023/02/02 09:59:21;;;;;;;3.25;0.50;;;;;;;10.14;32.23;98969.19;5055557;28;20109;-63
2023/02/02 10:01:49;;;;;;;4.22;1.27;;;;;;;10.05;31.42;98922.41;5053999;28;20135;-62
2023/02/02 10:04:38;;;;;;;3.42;1.05;;;;;;;10.65;31.04;98969.16;5057387;28;20028;-64
2023/02/02 10:07:22;;;;;;;2.63;0.83;;;;;;;10.83;30.62;98966.72;5056617;28;20016;-65
2023/02/02 10:09:58;;;;;;;2.35;0.73;;;;;;;10.85;30.49;98978.59;5057667;28;20266;-65
2023/02/02 10:12:48;;;;;;;2.85;0.70;;;;;;;10.97;29.98;98971.50;5029144;28;20089;-63
2023/02/02 10:15:43;;;;;;;1.65;0.60;;;;;;;11.31;29.27;98984.84;5076313;28;20117;-64
2023/02/02 10:18:29;;;;;;;1.92;0.50;;;;;;;11.48;28.76;98972.06;5072814;28;20138;-66
2023/02/02 10:20:58;;;;;;;2.08;0.40;;;;;;;11.58;28.69;98979.88;5041196;28;20404;-64
2023/02/02 10:23:32;;;;;;;1.27;0.43;;;;;;;11.48;29.25;98967.69;5056291;28;20016;-64
2023/02/02 10:26:16;;;;;;;4.90;1.95;;;;;;;11.64;28.83;98979.28;5075675;28;20042;-63
2023/02/02 10:28:47;;;;;;;3.75;1.40;;;;;;;11.73;28.81;98978.44;5047567;28;20021;-65
2023/02/02 10:31:33;;;;;;;2.03;0.60;;;;;;;11.84;29.89;98969.63;5075744;28;20120;-65
2023/02/02 10:34:36;;;;;;;1.85;0.50;;;;;;;11.82;30.08;98974.97;5074590;28;20032;-64
2023/02/02 10:37:11;;;;;;;2.45;0.52;;;;;;;11.92;28.59;98972.38;5073552;28;20861;-63
2023/02/02 10:39:43;;;;;;;2.03;0.80;;;;;;;11.96;28.88;98981.53;5078309;28;20032;-65
2023/02/02 10:42:27;;;;;;;1.77;0.52;;;;;;;12.14;29.28;98972.91;5077904;28;20020;-64
2023/02/02 10:45:03;;;;;;;3.13;0.88;;;;;;;12.15;27.84;98978.00;5051790;28;20032;-64
2023/02/02 10:47:30;;;;;;;2.78;0.50;;;;;;;12.34;27.33;98976.22;5052988;28;20027;-66
2023/02/02 10:50:09;;;;;;;1.30;0.40;;;;;;;12.36;26.95;98969.91;5059261;28;20067;-64
2023/02/02 10:52:35;;;;;;;0.68;0.30;;;;;;;12.22;29.39;98958.19;5050358;28;20028;-65
2023/02/02 10:55:18;;;;;;;1.98;0.65;;;;;;;12.36;29.46;98959.50;5043423;28;20429;-64
2023/02/02 10:57:56;;;;;;;3.47;0.30;;;;;;;12.18;29.53;98950.81;5059281;28;20035;-66
2023/02/02 11:00:36;;;;;;;5.38;1.13;;;;;;;12.20;29.32;98948.91;5077907;28;20140;-64
2023/02/02 11:03:03;;;;;;;3.75;0.73;;;;;;;12.54;27.11;98943.00;5071708;28;20223;-63
2023/02/02 11:08:24;;;;;;;2.25;0.50;;;;;;;12.78;25.83;98927.59;5059447;28;20139;-64
2023/02/02 11:10:52;;;;;;;4.30;0.80;;;;;;;12.58;26.14;98900.84;5051699;28;20104;-65
2023/02/02 11:13:28;;;;;;;2.92;0.70;;;;;;;12.80;25.93;98927.44;5058459;28;20024;-64
2023/02/02 11:16:12;;;;;;;1.85;0.50;;;;;;;12.84;25.74;98928.78;5076844;28;20032;-64
2023/02/02 11:18:38;;;;;;;4.40;1.27;;;;;;;12.73;26.83;98884.66;5075296;28;20034;-66
2023/02/02 11:21:18;;;;;;;2.03;0.52;;;;;;;12.68;27.39;98880.69;5059368;28;20020;-65
2023/02/02 11:24:26;;;;;;;3.70;1.20;;;;;;;12.97;26.22;98915.31;5076835;28;20882;-65
2023/02/02 11:27:07;;;;;;;4.22;1.30;;;;;;;12.80;27.77;98870.84;5050323;28;20072;-65
2023/02/02 11:29:36;;;;;;;4.82;1.88;;;;;;;12.87;26.29;98869.25;5077044;28;20020;-64
2023/02/02 11:32:24;;;;;;;3.90;1.27;;;;;;;13.14;26.25;98906.66;5047337;28;20634;-67
2023/02/02 11:35:16;;;;;;;1.15;0.40;;;;;;;13.28;26.08;98908.66;5077815;28;20146;-64
2023/02/02 11:38:11;;;;;;;1.13;0.30;;;;;;;13.32;25.91;98896.16;5059173;28;20467;-63
2023/02/02 11:40:44;;;;;;;0.98;0.30;;;;;;;13.27;25.60;98899.19;5050863;28;20070;-65
2023/02/02 11:43:18;;;;;;;1.02;0.30;;;;;;;13.37;24.84;98899.13;5055018;28;20024;-64
2023/02/02 11:45:48;;;;;;;0.88;0.30;;;;;;;13.45;25.14;98900.94;5077839;28;20040;-65
2023/02/02 11:48:21;;;;;;;1.48;0.30;;;;;;;13.45;24.76;98893.09;5039692;28;20020;-64
2023/02/02 11:50:49;;;;;;;0.80;0.20;;;;;;;13.40;24.81;98882.34;5030118;28;20029;-64
2023/02/02 11:53:31;;;;;;;2.38;0.47;;;;;;;13.46;24.83;98887.72;5058106;28;20020;-62
2023/02/02 11:56:01;;;;;;;1.40;0.43;;;;;;;13.50;25.50;98893.47;5057341;28;20031;-63
2023/02/02 11:58:27;;;;;;;1.60;0.50;;;;;;;13.50;26.46;98882.19;5034216;28;20482;-65
2023/02/02 12:00:57;;;;;;;1.05;0.30;;;;;;;13.52;25.41;98875.03;5057812;28;20024;-63